createdAt,value
2023-03-10T00:01:32.149Z,1.90
2023-03-10T00:04:01.115Z,2.00
2023-03-10T00:06:32.326Z,2.00
2023-03-10T00:08:59.656Z,2.00
2023-03-10T00:11:27.268Z,2.00
2023-03-10T00:13:54.034Z,2.00
2023-03-10T00:16:26.912Z,2.00
2023-03-10T00:18:54.972Z,2.10
2023-03-10T00:21:28.378Z,2.10
2023-03-10T00:23:56.041Z,2.10
2023-03-10T00:26:24.155Z,2.10
2023-03-10T00:28:51.416Z,2.20
2023-03-10T00:31:21.321Z,2.10
2023-03-10T00:33:48.891Z,2.10
2023-03-10T00:36:18.401Z,2.10
2023-03-10T00:38:46.777Z,2.10
2023-03-10T00:41:16.002Z,2.00
2023-03-10T00:43:43.766Z,2.10
2023-03-10T00:46:11.276Z,2.10
2023-03-10T00:48:38.176Z,2.10
2023-03-10T00:51:06.656Z,2.10
2023-03-10T00:53:35.425Z,2.10
2023-03-10T00:56:25.260Z,2.10
2023-03-10T00:58:58.093Z,2.10
2023-03-10T01:01:37.701Z,2.20
2023-03-10T01:04:11.544Z,2.20
2023-03-10T01:06:38.568Z,2.20
2023-03-10T01:09:06.664Z,2.20
2023-03-10T01:11:33.921Z,2.20
2023-03-10T01:14:04.300Z,2.20
2023-03-10T01:16:31.478Z,2.20
2023-03-10T01:18:58.848Z,2.20
2023-03-10T01:21:31.939Z,2.30
2023-03-10T01:24:00.351Z,2.30
2023-03-10T01:26:27.491Z,2.30
2023-03-10T01:28:54.468Z,2.30
2023-03-10T01:31:21.672Z,2.30
2023-03-10T01:33:48.784Z,2.30
2023-03-10T01:36:21.322Z,2.40
2023-03-10T01:38:49.297Z,2.40
2023-03-10T01:41:16.831Z,2.40
2023-03-10T01:43:46.091Z,2.40
2023-03-10T01:46:34.033Z,2.40
2023-03-10T01:49:10.059Z,2.40
2023-03-10T01:51:39.696Z,2.50
2023-03-10T01:54:13.777Z,2.50
2023-03-10T01:56:41.539Z,2.50
2023-03-10T01:59:10.954Z,2.50
2023-03-10T02:01:38.227Z,2.60
2023-03-10T02:04:11.143Z,2.60
2023-03-10T02:06:41.910Z,2.60
2023-03-10T02:09:09.459Z,2.70
2023-03-10T02:11:37.969Z,2.70
2023-03-10T02:14:06.798Z,2.70
2023-03-10T02:16:34.861Z,2.80
2023-03-10T02:19:04.552Z,2.90
2023-03-10T02:22:01.574Z,2.90
2023-03-10T02:24:39.473Z,3.00
2023-03-10T02:27:22.939Z,3.00
2023-03-10T02:30:09.485Z,3.10
2023-03-10T02:32:42.153Z,3.10
2023-03-10T02:35:09.686Z,3.20
2023-03-10T02:37:37.053Z,3.30
2023-03-10T02:40:34.037Z,3.30
2023-03-10T02:43:31.695Z,3.40
2023-03-10T02:46:03.472Z,4.00
2023-03-10T02:48:36.886Z,5.70
2023-03-10T02:51:09.808Z,7.00
2023-03-10T02:53:37.248Z,7.30
2023-03-10T02:56:04.354Z,7.50
2023-03-10T02:58:32.402Z,7.90
2023-03-10T03:00:59.393Z,7.90
2023-03-10T03:03:26.653Z,8.00
2023-03-10T03:05:53.959Z,8.20
2023-03-10T03:08:23.969Z,8.10
2023-03-10T03:10:50.995Z,8.30
2023-03-10T03:13:17.980Z,8.50
2023-03-10T03:15:44.867Z,8.50
2023-03-10T03:18:11.886Z,8.60
2023-03-10T03:20:41.194Z,8.60
2023-03-10T03:23:08.392Z,8.50
2023-03-10T03:25:38.497Z,8.40
2023-03-10T03:28:07.613Z,8.30
2023-03-10T03:30:34.509Z,8.30
2023-03-10T03:33:02.514Z,8.20
2023-03-10T03:35:32.961Z,8.20
2023-03-10T03:38:00.718Z,8.20
2023-03-10T03:40:30.453Z,8.20
2023-03-10T03:42:57.419Z,8.00
2023-03-10T03:45:26.657Z,7.90
2023-03-10T03:47:53.736Z,7.80
2023-03-10T03:50:22.152Z,7.80
2023-03-10T03:52:48.920Z,7.70
2023-03-10T03:55:18.559Z,7.60
2023-03-10T03:57:46.223Z,7.50
2023-03-10T04:00:18.610Z,7.40
2023-03-10T04:02:45.831Z,7.30
2023-03-10T04:05:13.102Z,7.20
2023-03-10T04:07:41.550Z,7.10
2023-03-10T04:10:10.592Z,7.10
2023-03-10T04:12:37.563Z,7.10
2023-03-10T04:15:05.342Z,7.00
2023-03-10T04:17:32.086Z,7.00
2023-03-10T04:20:06.909Z,6.90
2023-03-10T04:22:36.029Z,6.90
2023-03-10T04:25:04.023Z,6.80
2023-03-10T04:27:31.705Z,6.80
2023-03-10T04:29:58.661Z,6.80
2023-03-10T04:32:25.673Z,6.70
2023-03-10T04:34:52.414Z,6.70
2023-03-10T04:37:21.937Z,6.70
2023-03-10T04:39:49.482Z,6.60
2023-03-10T04:42:16.209Z,6.60
2023-03-10T04:44:43.177Z,6.60
2023-03-10T04:47:10.001Z,6.60
2023-03-10T04:49:38.337Z,6.60
2023-03-10T04:52:05.668Z,6.50
2023-03-10T04:54:32.508Z,6.50
2023-03-10T04:56:59.491Z,6.50
2023-03-10T04:59:26.833Z,6.40
2023-03-10T05:01:53.676Z,6.20
2023-03-10T05:04:21.713Z,5.70
2023-03-10T05:06:52.707Z,5.50
2023-03-10T05:09:20.033Z,5.40
2023-03-10T05:11:47.180Z,5.20
2023-03-10T05:14:14.584Z,5.00
2023-03-10T05:16:41.449Z,4.90
2023-03-10T05:19:08.256Z,4.90
2023-03-10T05:21:35.339Z,4.90
2023-03-10T05:24:02.258Z,4.80
2023-03-10T05:26:29.160Z,4.70
2023-03-10T05:28:57.149Z,4.50
2023-03-10T05:31:26.310Z,4.40
2023-03-10T05:33:54.292Z,4.20
2023-03-10T05:36:22.190Z,4.10
2023-03-10T05:38:49.384Z,3.90
2023-03-10T05:41:16.605Z,3.80
2023-03-10T05:43:43.685Z,3.70
2023-03-10T05:46:11.547Z,3.70
2023-03-10T05:48:39.278Z,3.70
2023-03-10T05:51:12.405Z,3.70
2023-03-10T05:53:40.494Z,3.70
2023-03-10T05:56:15.752Z,3.60
2023-03-10T05:58:43.125Z,3.50
2023-03-10T06:01:10.513Z,3.50
2023-03-10T06:03:38.850Z,3.50
2023-03-10T06:06:06.906Z,3.50
2023-03-10T06:08:34.084Z,3.50
2023-03-10T06:11:01.183Z,3.40
2023-03-10T06:13:28.104Z,3.50
2023-03-10T06:16:06.526Z,3.40
2023-03-10T06:18:34.704Z,3.40
2023-03-10T06:21:07.539Z,3.30
2023-03-10T06:23:34.510Z,3.30
2023-03-10T06:26:13.506Z,3.30
2023-03-10T06:28:42.476Z,3.20
2023-03-10T06:31:14.827Z,3.20
2023-03-10T06:33:41.743Z,3.20
2023-03-10T06:36:10.685Z,3.20
2023-03-10T06:38:38.392Z,3.20
2023-03-10T06:41:05.909Z,3.20
2023-03-10T06:43:33.986Z,3.10
2023-03-10T06:46:07.559Z,3.00
2023-03-10T06:48:36.277Z,3.00
2023-03-10T06:51:07.123Z,3.10
2023-03-10T06:53:34.196Z,3.10
2023-03-10T06:56:13.524Z,3.10
2023-03-10T06:58:41.395Z,3.00
2023-03-10T07:01:09.303Z,3.10
2023-03-10T07:03:36.757Z,3.10
2023-03-10T07:06:04.914Z,3.00
2023-03-10T07:08:31.966Z,2.90
2023-03-10T07:10:59.091Z,3.00
2023-03-10T07:13:25.852Z,3.00
2023-03-10T07:15:52.599Z,2.90
2023-03-10T07:18:19.804Z,2.90
2023-03-10T07:20:47.865Z,2.90
2023-03-10T07:23:15.562Z,2.80
2023-03-10T07:25:42.612Z,2.80
2023-03-10T07:28:09.652Z,2.80
2023-03-10T07:30:37.825Z,2.80
2023-03-10T07:33:05.635Z,2.90
2023-03-10T07:35:34.196Z,2.90
2023-03-10T07:38:03.847Z,2.90
2023-03-10T07:40:31.153Z,3.00
2023-03-10T07:42:58.084Z,2.90
2023-03-10T07:45:25.882Z,2.90
2023-03-10T07:47:54.173Z,2.90
2023-03-10T07:50:21.905Z,2.80
2023-03-10T07:52:48.886Z,2.80
2023-03-10T07:55:16.495Z,3.00
2023-03-10T07:57:43.403Z,3.00
2023-03-10T08:00:11.353Z,2.90
2023-03-10T08:02:38.755Z,3.00
2023-03-10T08:05:06.052Z,2.90
2023-03-10T08:07:33.018Z,3.00
2023-03-10T08:10:00.247Z,3.00
2023-03-10T08:12:27.181Z,3.10
2023-03-10T08:14:54.168Z,3.10
2023-03-10T08:17:21.015Z,3.10
2023-03-10T08:19:47.906Z,3.10
2023-03-10T08:22:16.447Z,3.20
2023-03-10T08:24:43.274Z,3.20
2023-03-10T08:27:10.088Z,3.20
2023-03-10T08:29:37.805Z,3.20
2023-03-10T08:32:05.233Z,3.30
2023-03-10T08:34:33.681Z,3.30
2023-03-10T08:37:01.153Z,3.40
2023-03-10T08:39:28.812Z,3.50
2023-03-10T08:41:56.264Z,3.40
2023-03-10T08:44:23.533Z,3.40
2023-03-10T08:46:51.143Z,3.30
2023-03-10T08:49:20.247Z,3.40
2023-03-10T08:51:47.575Z,3.50
2023-03-10T08:54:17.959Z,3.60
2023-03-10T08:56:45.215Z,3.60
2023-03-10T08:59:12.189Z,3.60
2023-03-10T09:01:39.206Z,3.70
2023-03-10T09:04:08.346Z,3.70
2023-03-10T09:06:36.014Z,3.70
2023-03-10T09:09:04.215Z,3.50
2023-03-10T09:11:34.066Z,3.60
2023-03-10T09:14:02.025Z,3.60
2023-03-10T09:16:29.638Z,3.60
2023-03-10T09:18:58.795Z,3.50
2023-03-10T09:21:26.231Z,3.50
2023-03-10T09:23:53.316Z,3.50
2023-03-10T09:26:21.477Z,3.50
2023-03-10T09:28:50.017Z,3.50
2023-03-10T09:31:20.660Z,3.70
2023-03-10T09:33:48.435Z,3.70
2023-03-10T09:36:15.892Z,3.60
2023-03-10T09:38:43.390Z,3.60
2023-03-10T09:41:19.123Z,3.70
2023-03-10T09:43:59.578Z,3.70
2023-03-10T09:46:48.784Z,3.70
2023-03-10T09:49:36.351Z,3.60
2023-03-10T09:52:24.479Z,3.70
2023-03-10T09:54:56.118Z,3.70
2023-03-10T09:57:23.783Z,3.70
2023-03-10T09:59:56.112Z,3.80
2023-03-10T10:02:36.394Z,3.80
2023-03-10T10:05:15.545Z,3.90
2023-03-10T10:07:52.060Z,3.80
2023-03-10T10:10:24.874Z,3.80
2023-03-10T10:12:54.566Z,3.90
2023-03-10T10:15:28.348Z,3.90
2023-03-10T10:18:34.307Z,3.90
2023-03-10T10:21:10.551Z,3.80
2023-03-10T10:23:51.899Z,3.80
2023-03-10T10:26:21.650Z,3.90
2023-03-10T10:28:59.844Z,3.80
2023-03-10T10:31:29.928Z,3.80
2023-03-10T10:34:01.149Z,3.90
2023-03-10T10:36:32.935Z,3.90
2023-03-10T10:39:00.530Z,3.90
2023-03-10T10:41:33.502Z,4.00
2023-03-10T10:44:16.170Z,3.80
2023-03-10T10:46:57.310Z,3.90
2023-03-10T10:49:25.956Z,4.10
2023-03-10T10:52:06.130Z,4.30
2023-03-10T10:54:39.561Z,4.30
2023-03-10T10:57:20.685Z,4.30
2023-03-10T10:59:47.933Z,4.40
2023-03-10T11:02:31.181Z,4.30
2023-03-10T11:05:16.362Z,4.20
2023-03-10T11:07:44.575Z,4.30
2023-03-10T11:10:22.056Z,4.30
2023-03-10T11:13:16.368Z,4.40
2023-03-10T11:16:18.797Z,4.30
2023-03-10T11:18:58.615Z,4.40
2023-03-10T11:21:30.086Z,4.40
2023-03-10T11:24:09.504Z,4.30
2023-03-10T11:26:39.338Z,4.40
2023-03-10T11:29:26.659Z,4.30
2023-03-10T11:32:05.797Z,4.30
2023-03-10T11:34:38.074Z,4.30
2023-03-10T11:37:24.958Z,4.60
2023-03-10T11:40:00.146Z,4.50
2023-03-10T11:42:45.949Z,4.50
2023-03-10T11:45:37.045Z,4.40
2023-03-10T11:48:29.368Z,4.30
2023-03-10T11:51:04.556Z,4.30
2023-03-10T11:53:53.646Z,4.20
2023-03-10T11:56:23.095Z,4.20
2023-03-10T11:59:14.210Z,4.20
2023-03-10T12:01:51.414Z,4.20
2023-03-10T12:04:23.068Z,4.20
2023-03-10T12:07:12.462Z,4.30
2023-03-10T12:09:46.335Z,4.30
2023-03-10T12:12:27.504Z,4.40
2023-03-10T12:14:56.954Z,4.40
2023-03-10T12:17:24.232Z,4.50
2023-03-10T12:20:25.304Z,4.50
2023-03-10T12:22:53.032Z,4.50
2023-03-10T12:25:29.217Z,4.50
2023-03-10T12:28:18.125Z,4.40
2023-03-10T12:30:53.448Z,4.30
2023-03-10T12:33:42.596Z,4.40
2023-03-10T12:36:34.442Z,4.40
2023-03-10T12:39:21.990Z,4.50
2023-03-10T12:42:02.639Z,4.50
2023-03-10T12:44:41.399Z,4.50
2023-03-10T12:47:08.492Z,4.50
2023-03-10T12:49:41.083Z,4.60
2023-03-10T12:52:08.214Z,4.80
2023-03-10T12:54:53.728Z,4.70
2023-03-10T12:57:48.921Z,4.60
2023-03-10T13:00:46.438Z,4.50
2023-03-10T13:03:19.631Z,4.50
2023-03-10T13:06:01.049Z,4.50
2023-03-10T13:08:39.788Z,4.60
2023-03-10T13:11:34.541Z,4.50
2023-03-10T13:14:19.501Z,4.50
2023-03-10T13:16:58.435Z,4.50
2023-03-10T13:19:28.271Z,4.50
2023-03-10T13:21:56.494Z,4.50
2023-03-10T13:24:28.204Z,4.50
2023-03-10T13:27:13.151Z,4.50
2023-03-10T13:29:54.479Z,4.60
2023-03-10T13:32:22.062Z,4.70
2023-03-10T13:34:48.906Z,4.80
2023-03-10T13:37:16.480Z,4.90
2023-03-10T13:39:43.877Z,5.40
2023-03-10T13:42:40.969Z,5.50
2023-03-10T13:45:25.486Z,5.20
2023-03-10T13:47:52.764Z,5.10
2023-03-10T13:50:19.849Z,5.20
2023-03-10T13:52:58.140Z,5.20
2023-03-10T13:55:26.953Z,5.10
2023-03-10T13:57:54.909Z,5.00
2023-03-10T14:00:26.617Z,4.90
2023-03-10T14:02:55.293Z,4.80
2023-03-10T14:05:37.510Z,4.80
2023-03-10T14:08:04.922Z,4.80
2023-03-10T14:10:31.781Z,4.80
2023-03-10T14:12:58.792Z,4.80
2023-03-10T14:15:29.189Z,4.90
2023-03-10T14:18:09.926Z,4.90
2023-03-10T14:20:39.720Z,5.00
2023-03-10T14:23:19.053Z,4.90
2023-03-10T14:25:47.714Z,4.90
2023-03-10T14:28:22.117Z,4.90
2023-03-10T14:30:49.060Z,4.80
2023-03-10T14:33:16.368Z,4.80
2023-03-10T14:35:46.141Z,4.80
2023-03-10T14:38:14.834Z,4.90
2023-03-10T14:40:53.773Z,5.00
2023-03-10T14:43:26.273Z,5.10
2023-03-10T14:45:56.471Z,5.10
2023-03-10T14:48:25.872Z,5.10
2023-03-10T14:50:55.098Z,5.00
2023-03-10T14:53:25.445Z,4.90
2023-03-10T14:55:55.241Z,4.90
2023-03-10T14:58:29.850Z,5.00
2023-03-10T15:00:56.703Z,5.00
2023-03-10T15:03:23.511Z,5.00
2023-03-10T15:05:50.345Z,5.00
2023-03-10T15:08:18.062Z,5.00
2023-03-10T15:10:48.680Z,4.90
2023-03-10T15:13:18.483Z,5.00
2023-03-10T15:15:46.686Z,4.80
2023-03-10T15:18:17.077Z,4.90
2023-03-10T15:20:44.348Z,4.80
2023-03-10T15:23:15.298Z,4.80
2023-03-10T15:25:45.299Z,4.90
2023-03-10T15:28:12.905Z,4.80
2023-03-10T15:30:40.600Z,4.90
2023-03-10T15:33:07.422Z,4.90
2023-03-10T15:35:35.234Z,4.80
2023-03-10T15:38:02.535Z,4.80
2023-03-10T15:40:31.779Z,4.80
2023-03-10T15:43:00.033Z,4.70
2023-03-10T15:45:28.937Z,4.70
2023-03-10T15:47:56.047Z,4.70
2023-03-10T15:50:23.573Z,4.70
2023-03-10T15:52:53.593Z,4.60
2023-03-10T15:55:20.891Z,4.60
2023-03-10T15:57:50.230Z,4.60
2023-03-10T16:00:22.913Z,4.60
2023-03-10T16:02:50.963Z,4.70
2023-03-10T16:05:18.992Z,4.60
2023-03-10T16:07:46.097Z,4.60
2023-03-10T16:10:15.747Z,4.50
2023-03-10T16:12:42.519Z,4.50
2023-03-10T16:15:10.194Z,4.50
2023-03-10T16:17:37.664Z,4.70
2023-03-10T16:20:11.773Z,4.60
2023-03-10T16:22:43.249Z,4.50
2023-03-10T16:25:15.885Z,4.60
2023-03-10T16:27:45.004Z,4.60
2023-03-10T16:30:14.028Z,4.40
2023-03-10T16:32:47.794Z,4.40
2023-03-10T16:35:15.938Z,4.40
2023-03-10T16:37:43.460Z,4.40
2023-03-10T16:40:11.298Z,4.40
2023-03-10T16:42:38.838Z,4.30
2023-03-10T16:45:07.299Z,4.30
2023-03-10T16:47:34.352Z,4.40
2023-03-10T16:50:01.163Z,4.40
2023-03-10T16:52:28.055Z,4.40
2023-03-10T16:55:00.889Z,4.40
2023-03-10T16:57:27.680Z,4.30
2023-03-10T16:59:54.633Z,4.40
2023-03-10T17:02:21.721Z,4.40
2023-03-10T17:04:49.413Z,4.30
2023-03-10T17:07:16.675Z,4.20
2023-03-10T17:09:43.537Z,4.20
2023-03-10T17:12:10.544Z,4.20
2023-03-10T17:14:37.483Z,4.20
2023-03-10T17:17:06.535Z,4.20
2023-03-10T17:19:34.863Z,4.10
2023-03-10T17:22:01.815Z,4.00
2023-03-10T17:24:29.590Z,4.00
2023-03-10T17:26:56.692Z,4.00
2023-03-10T17:29:23.509Z,3.90
2023-03-10T17:31:51.662Z,3.90
2023-03-10T17:34:20.025Z,3.90
2023-03-10T17:36:49.832Z,3.90
2023-03-10T17:39:20.078Z,3.80
2023-03-10T17:41:47.985Z,3.80
2023-03-10T17:44:15.735Z,3.70
2023-03-10T17:46:42.951Z,3.70
2023-03-10T17:49:12.525Z,3.70
2023-03-10T17:51:44.274Z,3.60
2023-03-10T17:54:22.939Z,3.60
2023-03-10T17:56:50.875Z,3.40
2023-03-10T17:59:18.097Z,3.20
2023-03-10T18:01:45.591Z,3.10
2023-03-10T18:04:12.932Z,2.90
2023-03-10T18:06:40.100Z,2.80
2023-03-10T18:09:09.221Z,2.60
2023-03-10T18:11:36.637Z,2.40
2023-03-10T18:14:05.000Z,2.20
2023-03-10T18:16:35.114Z,2.00
2023-03-10T18:19:02.242Z,1.90
2023-03-10T18:21:29.103Z,1.70
2023-03-10T18:23:56.119Z,1.60
2023-03-10T18:26:27.634Z,1.40
2023-03-10T18:28:55.086Z,1.30
2023-03-10T18:31:25.537Z,1.30
2023-03-10T18:33:53.121Z,1.30
2023-03-10T18:36:20.788Z,1.20
2023-03-10T18:38:48.770Z,1.30
2023-03-10T18:41:19.150Z,1.10
2023-03-10T18:43:46.687Z,1.20
2023-03-10T18:46:13.525Z,1.20
2023-03-10T18:48:40.552Z,1.10
2023-03-10T18:51:07.388Z,1.10
2023-03-10T18:53:34.402Z,1.00
2023-03-10T18:56:01.482Z,1.00
2023-03-10T18:58:29.828Z,1.00
2023-03-10T19:00:58.174Z,1.00
2023-03-10T19:03:28.312Z,1.00
2023-03-10T19:05:55.118Z,1.00
2023-03-10T19:08:26.960Z,1.00
2023-03-10T19:10:56.109Z,1.00
2023-03-10T19:13:24.355Z,1.00
2023-03-10T19:15:51.733Z,1.00
2023-03-10T19:18:19.051Z,1.00
2023-03-10T19:20:46.529Z,1.00
2023-03-10T19:23:14.668Z,1.00
2023-03-10T19:25:41.956Z,1.00
2023-03-10T19:28:08.906Z,1.00
2023-03-10T19:30:36.323Z,1.00
2023-03-10T19:33:03.280Z,1.10
2023-03-10T19:35:30.128Z,1.00
2023-03-10T19:37:58.168Z,1.00
2023-03-10T19:40:24.989Z,1.00
2023-03-10T19:42:51.838Z,1.00
2023-03-10T19:45:19.634Z,1.00
2023-03-10T19:47:46.737Z,1.00
2023-03-10T19:50:16.651Z,1.00
2023-03-10T19:52:48.646Z,1.00
2023-03-10T19:55:23.061Z,1.00
2023-03-10T19:57:52.254Z,1.00
2023-03-10T20:00:25.113Z,1.00
2023-03-10T20:02:53.431Z,1.00
2023-03-10T20:05:21.036Z,1.00
2023-03-10T20:07:48.795Z,1.00
2023-03-10T20:10:18.217Z,1.00
2023-03-10T20:12:51.172Z,0.90
2023-03-10T20:15:18.195Z,1.00
2023-03-10T20:17:45.303Z,0.90
2023-03-10T20:20:15.180Z,0.90
2023-03-10T20:22:45.671Z,0.90
2023-03-10T20:25:15.513Z,0.90
2023-03-10T20:27:42.426Z,0.90
2023-03-10T20:30:27.978Z,1.00
2023-03-10T20:32:55.800Z,0.90
2023-03-10T20:35:23.005Z,0.90
2023-03-10T20:37:50.779Z,0.90
2023-03-10T20:40:23.066Z,0.90
2023-03-10T20:42:55.814Z,0.90
2023-03-10T20:45:23.307Z,0.90
2023-03-10T20:47:50.961Z,0.90
2023-03-10T20:50:18.367Z,0.90
2023-03-10T20:52:45.506Z,1.70
2023-03-10T20:55:24.321Z,0.90
2023-03-10T20:57:53.499Z,0.90
2023-03-10T21:00:27.404Z,0.90
2023-03-10T21:02:57.320Z,0.90
2023-03-10T21:05:26.150Z,0.90
2023-03-10T21:07:53.993Z,0.90
2023-03-10T21:10:21.889Z,0.90
2023-03-10T21:12:51.467Z,0.90
2023-03-10T21:15:24.009Z,0.90
2023-03-10T21:17:54.148Z,1.00
2023-03-10T21:20:22.899Z,-0.20
2023-03-10T21:22:50.797Z,0.90
2023-03-10T21:25:23.991Z,0.90
2023-03-10T21:27:53.531Z,1.00
2023-03-10T21:30:22.083Z,1.00
2023-03-10T21:32:49.150Z,1.00
2023-03-10T21:35:16.483Z,1.00
2023-03-10T21:37:46.917Z,1.00
2023-03-10T21:40:15.255Z,1.00
2023-03-10T21:42:42.868Z,1.00
2023-03-10T21:45:13.466Z,0.90
2023-03-10T21:47:40.561Z,0.90
2023-03-10T21:50:08.639Z,0.90
2023-03-10T21:52:35.646Z,0.90
2023-03-10T21:55:03.390Z,0.90
2023-03-10T21:57:30.296Z,1.00
2023-03-10T21:59:57.161Z,0.90
2023-03-10T22:02:30.137Z,0.90
2023-03-10T22:04:57.630Z,0.90
2023-03-10T22:07:24.913Z,0.80
2023-03-10T22:09:51.995Z,0.80
2023-03-10T22:12:18.846Z,0.80
2023-03-10T22:14:45.781Z,0.80
2023-03-10T22:17:12.858Z,0.80
2023-03-10T22:19:39.780Z,0.80
2023-03-10T22:22:06.678Z,0.80
2023-03-10T22:24:33.609Z,0.80
2023-03-10T22:27:00.475Z,0.80
2023-03-10T22:29:27.642Z,0.80
2023-03-10T22:31:56.435Z,0.80
2023-03-10T22:34:23.314Z,0.80
2023-03-10T22:36:50.069Z,0.80
2023-03-10T22:39:17.128Z,0.70
2023-03-10T22:41:44.132Z,0.80
2023-03-10T22:44:10.875Z,0.70
2023-03-10T22:46:40.336Z,1.20
2023-03-10T22:49:07.676Z,0.70
2023-03-10T22:51:34.452Z,0.70
2023-03-10T22:54:01.523Z,0.70
2023-03-10T22:56:28.835Z,0.70
2023-03-10T22:58:55.746Z,0.70
2023-03-10T23:01:22.949Z,0.70
2023-03-10T23:03:50.186Z,0.70
2023-03-10T23:06:17.433Z,0.70
2023-03-10T23:08:44.846Z,0.70
2023-03-10T23:11:14.378Z,0.70
2023-03-10T23:13:41.746Z,0.60
2023-03-10T23:16:09.053Z,0.70
2023-03-10T23:18:35.980Z,0.60
2023-03-10T23:21:04.054Z,0.70
2023-03-10T23:23:32.120Z,0.70
2023-03-10T23:25:59.006Z,0.70
2023-03-10T23:28:25.822Z,0.70
2023-03-10T23:30:54.340Z,0.70
2023-03-10T23:33:23.762Z,0.60
2023-03-10T23:35:54.152Z,0.60
2023-03-10T23:38:23.780Z,0.60
2023-03-10T23:40:51.343Z,0.60
2023-03-10T23:43:19.063Z,0.60
2023-03-10T23:45:46.291Z,0.50
2023-03-10T23:48:16.239Z,0.50
2023-03-10T23:50:44.737Z,0.40
2023-03-10T23:53:14.865Z,0.50
2023-03-10T23:55:44.029Z,0.40
2023-03-10T23:58:11.984Z,0.50
